sensor_id;sensor_type;location;lat;lon;timestamp;noise_LAeq;noise_LA_min;noise_LA_max;noise_LA01;noise_LA95
64996;Laerm;51545;51.568;6.998;2024-01-10T00:02:00;51.79;42.43;57.93;;
64996;Laerm;51545;51.568;6.998;2024-01-10T00:04:26;57.05;44.96;65.46;;
64996;Laerm;51545;51.568;6.998;2024-01-10T00:06:52;54.68;43.26;63.44;;
64996;Laerm;51545;51.568;6.998;2024-01-10T00:09:18;50.62;43.08;56.73;;
64996;Laerm;51545;51.568;6.998;2024-01-10T00:11:44;49.24;40.14;54.44;;
64996;Laerm;51545;51.568;6.998;2024-01-10T00:14:11;47.66;36.88;55.92;;
64996;Laerm;51545;51.568;6.998;2024-01-10T00:16:39;46.72;38.22;59.74;;
64996;Laerm;51545;51.568;6.998;2024-01-10T00:19:04;46.11;39.03;53.65;;
64996;Laerm;51545;51.568;6.998;2024-01-10T00:21:30;47.01;38.05;56.26;;
64996;Laerm;51545;51.568;6.998;2024-01-10T00:23:57;50.67;39.51;59.93;;
64996;Laerm;51545;51.568;6.998;2024-01-10T00:26:23;50.44;37.84;59.90;;
64996;Laerm;51545;51.568;6.998;2024-01-10T00:28:49;48.77;38.38;56.99;;
64996;Laerm;51545;51.568;6.998;2024-01-10T00:31:16;49.43;39.76;58.47;;
64996;Laerm;51545;51.568;6.998;2024-01-10T00:33:43;47.87;38.56;56.83;;
64996;Laerm;51545;51.568;6.998;2024-01-10T00:36:09;45.24;38.54;54.53;;
64996;Laerm;51545;51.568;6.998;2024-01-10T00:38:36;45.08;38.48;56.68;;
64996;Laerm;51545;51.568;6.998;2024-01-10T00:41:02;44.92;36.91;52.59;;
64996;Laerm;51545;51.568;6.998;2024-01-10T00:43:29;44.90;39.07;55.64;;
64996;Laerm;51545;51.568;6.998;2024-01-10T00:45:56;46.46;39.57;55.96;;
64996;Laerm;51545;51.568;6.998;2024-01-10T00:48:22;44.67;37.62;51.14;;
64996;Laerm;51545;51.568;6.998;2024-01-10T00:51:43;43.32;36.25;53.14;;
64996;Laerm;51545;51.568;6.998;2024-01-10T00:54:09;45.54;37.08;53.87;;
64996;Laerm;51545;51.568;6.998;2024-01-10T00:56:35;47.96;40.74;55.33;;
64996;Laerm;51545;51.568;6.998;2024-01-10T00:59:01;46.52;39.14;55.48;;
64996;Laerm;51545;51.568;6.998;2024-01-10T01:01:27;48.27;41.55;56.03;;
64996;Laerm;51545;51.568;6.998;2024-01-10T01:03:53;46.49;39.77;52.99;;
64996;Laerm;51545;51.568;6.998;2024-01-10T01:06:20;47.97;40.80;55.44;;
64996;Laerm;51545;51.568;6.998;2024-01-10T01:08:45;46.82;38.50;55.26;;
64996;Laerm;51545;51.568;6.998;2024-01-10T01:11:14;45.56;39.04;56.57;;
64996;Laerm;51545;51.568;6.998;2024-01-10T01:13:40;47.05;38.47;56.56;;
64996;Laerm;51545;51.568;6.998;2024-01-10T01:16:06;44.09;37.97;52.07;;
64996;Laerm;51545;51.568;6.998;2024-01-10T01:18:32;46.89;37.42;56.37;;
64996;Laerm;51545;51.568;6.998;2024-01-10T01:20:58;48.91;40.25;56.81;;
64996;Laerm;51545;51.568;6.998;2024-01-10T01:23:24;47.80;39.90;54.40;;
64996;Laerm;51545;51.568;6.998;2024-01-10T01:25:51;44.79;37.87;54.59;;
64996;Laerm;51545;51.568;6.998;2024-01-10T01:28:17;42.26;38.20;52.50;;
64996;Laerm;51545;51.568;6.998;2024-01-10T01:30:42;41.67;36.38;53.30;;
64996;Laerm;51545;51.568;6.998;2024-01-10T01:33:08;44.53;35.05;55.05;;
64996;Laerm;51545;51.568;6.998;2024-01-10T01:35:34;43.21;37.38;57.70;;
64996;Laerm;51545;51.568;6.998;2024-01-10T01:38:00;42.26;35.38;50.07;;
64996;Laerm;51545;51.568;6.998;2024-01-10T01:40:26;41.71;35.79;50.51;;
64996;Laerm;51545;51.568;6.998;2024-01-10T01:42:53;39.76;35.41;49.53;;
64996;Laerm;51545;51.568;6.998;2024-01-10T01:45:19;42.85;36.51;55.56;;
64996;Laerm;51545;51.568;6.998;2024-01-10T01:47:45;42.53;38.42;49.20;;
64996;Laerm;51545;51.568;6.998;2024-01-10T01:50:11;41.36;37.69;48.17;;
64996;Laerm;51545;51.568;6.998;2024-01-10T01:52:38;41.57;37.72;49.49;;
64996;Laerm;51545;51.568;6.998;2024-01-10T01:55:05;41.36;37.17;47.29;;
64996;Laerm;51545;51.568;6.998;2024-01-10T01:57:33;40.57;36.56;44.88;;
64996;Laerm;51545;51.568;6.998;2024-01-10T01:59:59;40.97;36.01;50.13;;
64996;Laerm;51545;51.568;6.998;2024-01-10T02:02:26;39.99;36.37;48.08;;
64996;Laerm;51545;51.568;6.998;2024-01-10T02:04:53;42.65;36.87;48.96;;
64996;Laerm;51545;51.568;6.998;2024-01-10T02:07:20;44.81;38.25;53.78;;
64996;Laerm;51545;51.568;6.998;2024-01-10T02:09:46;43.91;37.39;51.72;;
64996;Laerm;51545;51.568;6.998;2024-01-10T02:12:12;40.41;35.86;47.88;;
64996;Laerm;51545;51.568;6.998;2024-01-10T02:14:38;40.28;37.12;47.68;;
64996;Laerm;51545;51.568;6.998;2024-01-10T02:17:04;40.14;36.19;48.54;;
64996;Laerm;51545;51.568;6.998;2024-01-10T02:19:32;39.99;36.83;46.57;;
64996;Laerm;51545;51.568;6.998;2024-01-10T02:22:00;39.98;36.64;47.78;;
64996;Laerm;51545;51.568;6.998;2024-01-10T02:24:26;41.76;38.21;48.41;;
64996;Laerm;51545;51.568;6.998;2024-01-10T02:26:52;42.70;38.50;50.18;;
64996;Laerm;51545;51.568;6.998;2024-01-10T02:29:18;42.00;37.32;48.57;;
64996;Laerm;51545;51.568;6.998;2024-01-10T02:31:44;44.33;38.79;50.87;;
64996;Laerm;51545;51.568;6.998;2024-01-10T02:34:10;44.84;37.80;54.72;;
64996;Laerm;51545;51.568;6.998;2024-01-10T02:36:36;46.33;40.59;55.17;;
64996;Laerm;51545;51.568;6.998;2024-01-10T02:39:02;45.93;41.19;56.32;;
64996;Laerm;51545;51.568;6.998;2024-01-10T02:41:28;46.37;42.82;50.85;;
64996;Laerm;51545;51.568;6.998;2024-01-10T02:43:58;47.40;42.77;54.15;;
64996;Laerm;51545;51.568;6.998;2024-01-10T02:46:27;47.32;43.04;55.05;;
64996;Laerm;51545;51.568;6.998;2024-01-10T02:48:54;45.28;42.68;51.78;;
64996;Laerm;51545;51.568;6.998;2024-01-10T02:51:22;45.13;41.70;48.41;;
64996;Laerm;51545;51.568;6.998;2024-01-10T02:53:48;46.79;42.31;57.60;;
64996;Laerm;51545;51.568;6.998;2024-01-10T02:56:15;48.05;41.53;53.68;;
64996;Laerm;51545;51.568;6.998;2024-01-10T02:58:42;46.56;42.53;54.09;;
64996;Laerm;51545;51.568;6.998;2024-01-10T03:01:09;44.77;41.70;49.17;;
64996;Laerm;51545;51.568;6.998;2024-01-10T03:03:35;46.53;41.31;52.07;;
64996;Laerm;51545;51.568;6.998;2024-01-10T03:06:01;43.00;38.50;49.27;;
64996;Laerm;51545;51.568;6.998;2024-01-10T03:08:27;44.29;40.22;49.26;;
64996;Laerm;51545;51.568;6.998;2024-01-10T03:10:53;44.84;39.56;49.51;;
64996;Laerm;51545;51.568;6.998;2024-01-10T03:13:19;41.97;36.80;52.29;;
64996;Laerm;51545;51.568;6.998;2024-01-10T03:15:45;44.54;36.78;54.73;;
64996;Laerm;51545;51.568;6.998;2024-01-10T03:18:12;41.80;37.26;52.60;;
64996;Laerm;51545;51.568;6.998;2024-01-10T03:20:38;43.95;38.42;50.21;;
64996;Laerm;51545;51.568;6.998;2024-01-10T03:23:04;40.77;37.08;48.71;;
64996;Laerm;51545;51.568;6.998;2024-01-10T03:25:29;39.94;35.40;44.81;;
64996;Laerm;51545;51.568;6.998;2024-01-10T03:27:55;41.74;36.81;53.61;;
64996;Laerm;51545;51.568;6.998;2024-01-10T03:30:24;44.44;37.83;54.39;;
64996;Laerm;51545;51.568;6.998;2024-01-10T03:32:50;48.89;41.77;56.46;;
64996;Laerm;51545;51.568;6.998;2024-01-10T03:35:16;51.10;44.33;57.70;;
64996;Laerm;51545;51.568;6.998;2024-01-10T03:37:42;51.20;42.74;59.80;;
64996;Laerm;51545;51.568;6.998;2024-01-10T03:40:08;50.47;43.52;58.93;;
64996;Laerm;51545;51.568;6.998;2024-01-10T03:42:46;48.20;41.66;58.44;;
64996;Laerm;51545;51.568;6.998;2024-01-10T03:45:17;48.01;40.97;54.76;;
64996;Laerm;51545;51.568;6.998;2024-01-10T03:47:46;47.10;41.76;53.71;;
64996;Laerm;51545;51.568;6.998;2024-01-10T03:50:17;53.54;42.99;61.83;;
64996;Laerm;51545;51.568;6.998;2024-01-10T03:52:45;46.99;38.08;58.56;;
64996;Laerm;51545;51.568;6.998;2024-01-10T03:55:13;44.62;40.94;50.80;;
64996;Laerm;51545;51.568;6.998;2024-01-10T03:57:39;44.03;40.71;48.93;;
64996;Laerm;51545;51.568;6.998;2024-01-10T04:00:06;46.16;40.68;50.51;;
64996;Laerm;51545;51.568;6.998;2024-01-10T04:02:33;49.25;43.67;55.48;;
64996;Laerm;51545;51.568;6.998;2024-01-10T04:04:58;49.49;44.56;57.30;;
64996;Laerm;51545;51.568;6.998;2024-01-10T04:07:27;46.47;43.45;49.93;;
64996;Laerm;51545;51.568;6.998;2024-01-10T04:09:53;46.39;41.56;50.96;;
64996;Laerm;51545;51.568;6.998;2024-01-10T04:12:19;43.27;38.38;48.43;;
64996;Laerm;51545;51.568;6.998;2024-01-10T04:14:45;44.11;40.76;47.73;;
64996;Laerm;51545;51.568;6.998;2024-01-10T04:17:11;43.20;39.88;47.82;;
64996;Laerm;51545;51.568;6.998;2024-01-10T04:19:37;43.66;39.50;48.80;;
64996;Laerm;51545;51.568;6.998;2024-01-10T04:22:03;45.48;40.52;52.45;;
64996;Laerm;51545;51.568;6.998;2024-01-10T04:24:29;45.61;41.75;49.94;;
64996;Laerm;51545;51.568;6.998;2024-01-10T04:26:55;50.36;42.57;57.51;;
64996;Laerm;51545;51.568;6.998;2024-01-10T04:29:21;48.69;42.99;56.83;;
64996;Laerm;51545;51.568;6.998;2024-01-10T04:32:15;48.07;43.24;53.03;;
64996;Laerm;51545;51.568;6.998;2024-01-10T04:34:41;47.95;44.20;52.49;;
64996;Laerm;51545;51.568;6.998;2024-01-10T04:37:07;45.60;41.79;50.99;;
64996;Laerm;51545;51.568;6.998;2024-01-10T04:39:37;43.15;38.72;47.53;;
64996;Laerm;51545;51.568;6.998;2024-01-10T04:42:04;42.51;39.32;48.16;;
64996;Laerm;51545;51.568;6.998;2024-01-10T04:44:30;42.29;39.10;46.34;;
64996;Laerm;51545;51.568;6.998;2024-01-10T04:46:57;43.90;38.57;51.50;;
64996;Laerm;51545;51.568;6.998;2024-01-10T04:49:23;42.05;36.80;48.54;;
64996;Laerm;51545;51.568;6.998;2024-01-10T04:51:50;42.22;37.04;47.34;;
64996;Laerm;51545;51.568;6.998;2024-01-10T04:54:16;40.52;36.14;50.95;;
64996;Laerm;51545;51.568;6.998;2024-01-10T04:56:42;39.64;36.11;47.96;;
64996;Laerm;51545;51.568;6.998;2024-01-10T04:59:08;39.48;36.06;46.02;;
64996;Laerm;51545;51.568;6.998;2024-01-10T05:01:34;40.65;36.27;49.29;;
64996;Laerm;51545;51.568;6.998;2024-01-10T05:04:00;41.77;37.71;50.03;;
64996;Laerm;51545;51.568;6.998;2024-01-10T05:06:26;41.40;37.55;49.08;;
64996;Laerm;51545;51.568;6.998;2024-01-10T05:08:53;41.25;36.64;48.47;;
64996;Laerm;51545;51.568;6.998;2024-01-10T05:11:24;40.70;36.62;50.99;;
64996;Laerm;51545;51.568;6.998;2024-01-10T05:13:54;43.88;38.23;54.29;;
64996;Laerm;51545;51.568;6.998;2024-01-10T05:16:20;45.65;39.99;56.19;;
64996;Laerm;51545;51.568;6.998;2024-01-10T05:18:47;43.31;37.34;53.14;;
64996;Laerm;51545;51.568;6.998;2024-01-10T05:21:13;50.14;37.52;60.28;;
64996;Laerm;51545;51.568;6.998;2024-01-10T05:23:40;51.67;42.07;60.23;;
64996;Laerm;51545;51.568;6.998;2024-01-10T05:26:06;45.53;36.91;55.07;;
64996;Laerm;51545;51.568;6.998;2024-01-10T05:28:32;44.71;36.61;50.08;;
64996;Laerm;51545;51.568;6.998;2024-01-10T05:30:58;45.73;39.89;50.48;;
64996;Laerm;51545;51.568;6.998;2024-01-10T05:33:24;46.53;41.54;52.21;;
64996;Laerm;51545;51.568;6.998;2024-01-10T05:35:51;48.32;42.54;55.72;;
64996;Laerm;51545;51.568;6.998;2024-01-10T05:38:16;44.69;40.89;49.76;;
64996;Laerm;51545;51.568;6.998;2024-01-10T05:40:42;45.99;38.63;52.88;;
64996;Laerm;51545;51.568;6.998;2024-01-10T05:43:10;44.32;39.77;50.04;;
64996;Laerm;51545;51.568;6.998;2024-01-10T05:45:36;45.52;38.65;58.00;;
64996;Laerm;51545;51.568;6.998;2024-01-10T05:48:03;47.70;39.15;54.15;;
64996;Laerm;51545;51.568;6.998;2024-01-10T05:50:29;49.77;43.83;54.82;;
64996;Laerm;51545;51.568;6.998;2024-01-10T05:52:55;49.33;42.05;55.24;;
64996;Laerm;51545;51.568;6.998;2024-01-10T05:55:23;50.44;39.18;58.69;;
64996;Laerm;51545;51.568;6.998;2024-01-10T05:57:50;51.97;44.25;60.37;;
64996;Laerm;51545;51.568;6.998;2024-01-10T06:00:16;51.53;44.66;56.52;;
64996;Laerm;51545;51.568;6.998;2024-01-10T06:02:42;54.13;44.98;63.68;;
64996;Laerm;51545;51.568;6.998;2024-01-10T06:05:09;49.11;42.48;55.45;;
64996;Laerm;51545;51.568;6.998;2024-01-10T06:07:39;48.60;41.20;59.23;;
64996;Laerm;51545;51.568;6.998;2024-01-10T06:10:08;47.97;41.91;57.50;;
64996;Laerm;51545;51.568;6.998;2024-01-10T06:12:38;48.20;43.71;54.68;;
64996;Laerm;51545;51.568;6.998;2024-01-10T06:15:05;48.21;42.80;54.48;;
64996;Laerm;51545;51.568;6.998;2024-01-10T06:17:32;48.87;42.55;55.33;;
64996;Laerm;51545;51.568;6.998;2024-01-10T06:20:00;48.16;41.89;53.84;;
64996;Laerm;51545;51.568;6.998;2024-01-10T06:22:26;50.29;40.35;54.26;;
64996;Laerm;51545;51.568;6.998;2024-01-10T06:24:52;50.33;45.11;54.34;;
64996;Laerm;51545;51.568;6.998;2024-01-10T06:27:18;51.84;46.66;55.71;;
64996;Laerm;51545;51.568;6.998;2024-01-10T06:29:44;52.56;47.21;56.32;;
64996;Laerm;51545;51.568;6.998;2024-01-10T06:32:11;51.86;45.10;56.93;;
64996;Laerm;51545;51.568;6.998;2024-01-10T06:34:37;51.61;43.41;61.46;;
64996;Laerm;51545;51.568;6.998;2024-01-10T06:37:03;52.69;45.56;60.37;;
64996;Laerm;51545;51.568;6.998;2024-01-10T06:39:29;52.76;46.65;57.11;;
64996;Laerm;51545;51.568;6.998;2024-01-10T06:41:55;51.22;44.18;57.18;;
64996;Laerm;51545;51.568;6.998;2024-01-10T06:44:21;52.32;46.63;56.64;;
64996;Laerm;51545;51.568;6.998;2024-01-10T06:46:47;54.55;48.99;62.93;;
64996;Laerm;51545;51.568;6.998;2024-01-10T06:49:13;54.46;49.32;60.93;;
64996;Laerm;51545;51.568;6.998;2024-01-10T06:51:39;51.63;44.25;62.50;;
64996;Laerm;51545;51.568;6.998;2024-01-10T06:54:05;49.62;44.71;54.04;;
64996;Laerm;51545;51.568;6.998;2024-01-10T06:56:32;54.03;45.50;61.65;;
64996;Laerm;51545;51.568;6.998;2024-01-10T06:58:59;56.85;50.56;60.24;;
64996;Laerm;51545;51.568;6.998;2024-01-10T07:01:26;56.43;44.47;60.36;;
64996;Laerm;51545;51.568;6.998;2024-01-10T07:03:53;55.18;48.47;59.02;;
64996;Laerm;51545;51.568;6.998;2024-01-10T07:06:22;55.05;47.72;59.19;;
64996;Laerm;51545;51.568;6.998;2024-01-10T07:08:49;55.83;50.73;59.23;;
64996;Laerm;51545;51.568;6.998;2024-01-10T07:11:16;56.41;46.82;60.47;;
64996;Laerm;51545;51.568;6.998;2024-01-10T07:13:42;55.23;47.87;59.74;;
64996;Laerm;51545;51.568;6.998;2024-01-10T07:16:09;57.10;45.95;60.61;;
64996;Laerm;51545;51.568;6.998;2024-01-10T07:18:35;56.53;47.38;59.94;;
64996;Laerm;51545;51.568;6.998;2024-01-10T07:21:01;55.33;48.72;59.03;;
64996;Laerm;51545;51.568;6.998;2024-01-10T07:23:27;52.81;43.93;57.77;;
64996;Laerm;51545;51.568;6.998;2024-01-10T07:25:53;52.48;46.20;57.07;;
64996;Laerm;51545;51.568;6.998;2024-01-10T07:28:20;50.54;42.24;56.40;;
64996;Laerm;51545;51.568;6.998;2024-01-10T07:30:47;49.58;41.16;56.33;;
64996;Laerm;51545;51.568;6.998;2024-01-10T07:33:13;46.01;39.75;54.61;;
64996;Laerm;51545;51.568;6.998;2024-01-10T07:35:39;48.87;41.26;58.24;;
64996;Laerm;51545;51.568;6.998;2024-01-10T07:38:08;50.03;41.32;62.06;;
64996;Laerm;51545;51.568;6.998;2024-01-10T07:40:34;47.17;39.78;58.26;;
64996;Laerm;51545;51.568;6.998;2024-01-10T07:43:00;46.24;40.17;56.44;;
64996;Laerm;51545;51.568;6.998;2024-01-10T07:45:27;44.36;39.92;52.45;;
64996;Laerm;51545;51.568;6.998;2024-01-10T07:47:54;45.65;37.69;53.82;;
64996;Laerm;51545;51.568;6.998;2024-01-10T07:50:20;46.30;38.91;56.44;;
64996;Laerm;51545;51.568;6.998;2024-01-10T07:52:46;44.89;39.88;51.90;;
64996;Laerm;51545;51.568;6.998;2024-01-10T07:55:13;45.34;40.16;52.15;;
64996;Laerm;51545;51.568;6.998;2024-01-10T07:57:39;49.04;39.69;54.78;;
64996;Laerm;51545;51.568;6.998;2024-01-10T08:00:08;49.75;41.46;55.35;;
64996;Laerm;51545;51.568;6.998;2024-01-10T08:02:40;53.36;42.68;59.17;;
64996;Laerm;51545;51.568;6.998;2024-01-10T08:05:09;56.71;46.92;61.37;;
64996;Laerm;51545;51.568;6.998;2024-01-10T08:07:37;56.87;42.99;63.14;;
64996;Laerm;51545;51.568;6.998;2024-01-10T08:10:09;50.49;41.96;59.47;;
64996;Laerm;51545;51.568;6.998;2024-01-10T08:12:36;52.52;37.41;65.11;;
64996;Laerm;51545;51.568;6.998;2024-01-10T08:15:02;50.58;43.38;58.31;;
64996;Laerm;51545;51.568;6.998;2024-01-10T08:17:28;50.61;41.71;59.25;;
64996;Laerm;51545;51.568;6.998;2024-01-10T08:19:54;55.46;47.26;62.86;;
64996;Laerm;51545;51.568;6.998;2024-01-10T08:22:20;53.03;40.81;58.38;;
64996;Laerm;51545;51.568;6.998;2024-01-10T08:24:46;51.14;41.27;57.91;;
64996;Laerm;51545;51.568;6.998;2024-01-10T08:27:12;49.62;39.21;59.02;;
64996;Laerm;51545;51.568;6.998;2024-01-10T08:29:38;50.54;41.83;59.19;;
64996;Laerm;51545;51.568;6.998;2024-01-10T08:32:05;53.21;42.96;59.97;;
64996;Laerm;51545;51.568;6.998;2024-01-10T08:34:31;45.84;40.96;57.88;;
64996;Laerm;51545;51.568;6.998;2024-01-10T08:36:57;46.08;40.40;57.43;;
64996;Laerm;51545;51.568;6.998;2024-01-10T08:39:25;51.26;41.96;59.80;;
64996;Laerm;51545;51.568;6.998;2024-01-10T08:41:54;49.46;41.44;61.07;;
64996;Laerm;51545;51.568;6.998;2024-01-10T08:44:19;52.50;46.15;58.93;;
64996;Laerm;51545;51.568;6.998;2024-01-10T08:46:46;51.84;42.81;57.78;;
64996;Laerm;51545;51.568;6.998;2024-01-10T08:49:13;52.49;42.69;60.66;;
64996;Laerm;51545;51.568;6.998;2024-01-10T08:51:41;46.15;41.08;54.99;;
64996;Laerm;51545;51.568;6.998;2024-01-10T08:54:08;49.95;44.02;54.62;;
64996;Laerm;51545;51.568;6.998;2024-01-10T08:56:34;49.62;44.88;53.44;;
64996;Laerm;51545;51.568;6.998;2024-01-10T08:59:01;49.46;43.42;54.63;;
64996;Laerm;51545;51.568;6.998;2024-01-10T09:01:27;50.47;44.19;55.89;;
64996;Laerm;51545;51.568;6.998;2024-01-10T09:03:53;52.44;47.71;56.41;;
64996;Laerm;51545;51.568;6.998;2024-01-10T09:06:19;50.93;46.42;55.30;;
64996;Laerm;51545;51.568;6.998;2024-01-10T09:08:46;52.52;48.69;56.12;;
64996;Laerm;51545;51.568;6.998;2024-01-10T09:11:12;53.83;48.62;58.68;;
64996;Laerm;51545;51.568;6.998;2024-01-10T09:13:40;53.60;49.64;56.95;;
64996;Laerm;51545;51.568;6.998;2024-01-10T09:16:06;53.63;47.11;58.94;;
64996;Laerm;51545;51.568;6.998;2024-01-10T09:18:32;49.30;41.93;54.98;;
64996;Laerm;51545;51.568;6.998;2024-01-10T09:20:58;48.50;40.48;60.54;;
64996;Laerm;51545;51.568;6.998;2024-01-10T09:23:24;49.81;44.22;54.48;;
64996;Laerm;51545;51.568;6.998;2024-01-10T09:25:50;49.62;41.37;59.54;;
64996;Laerm;51545;51.568;6.998;2024-01-10T09:28:16;50.18;41.67;54.74;;
64996;Laerm;51545;51.568;6.998;2024-01-10T09:30:42;47.03;41.51;59.99;;
64996;Laerm;51545;51.568;6.998;2024-01-10T09:33:08;46.92;40.97;53.14;;
64996;Laerm;51545;51.568;6.998;2024-01-10T09:35:34;45.89;38.35;55.30;;
64996;Laerm;51545;51.568;6.998;2024-01-10T09:38:00;45.65;39.61;53.16;;
64996;Laerm;51545;51.568;6.998;2024-01-10T09:40:29;44.05;37.64;53.27;;
64996;Laerm;51545;51.568;6.998;2024-01-10T09:42:55;44.30;38.11;53.05;;
64996;Laerm;51545;51.568;6.998;2024-01-10T09:45:22;48.81;38.67;56.73;;
64996;Laerm;51545;51.568;6.998;2024-01-10T09:47:52;46.88;39.52;56.33;;
64996;Laerm;51545;51.568;6.998;2024-01-10T09:50:20;49.96;40.53;61.72;;
64996;Laerm;51545;51.568;6.998;2024-01-10T09:52:51;45.25;39.62;51.01;;
64996;Laerm;51545;51.568;6.998;2024-01-10T09:55:20;44.79;38.50;51.82;;
64996;Laerm;51545;51.568;6.998;2024-01-10T09:57:47;46.49;40.16;58.42;;
64996;Laerm;51545;51.568;6.998;2024-01-10T10:00:15;46.79;40.79;54.55;;
64996;Laerm;51545;51.568;6.998;2024-01-10T10:02:42;47.62;43.30;54.20;;
64996;Laerm;51545;51.568;6.998;2024-01-10T10:05:11;45.87;41.87;51.78;;
64996;Laerm;51545;51.568;6.998;2024-01-10T10:07:48;47.22;42.86;52.18;;
64996;Laerm;51545;51.568;6.998;2024-01-10T10:10:16;48.26;42.35;53.90;;
64996;Laerm;51545;51.568;6.998;2024-01-10T10:15:14;48.75;43.22;56.48;;
64996;Laerm;51545;51.568;6.998;2024-01-10T10:17:49;52.45;43.82;61.87;;
64996;Laerm;51545;51.568;6.998;2024-01-10T10:20:25;55.59;45.67;61.91;;
64996;Laerm;51545;51.568;6.998;2024-01-10T10:23:01;49.12;42.48;54.34;;
64996;Laerm;51545;51.568;6.998;2024-01-10T10:25:33;48.66;42.44;54.18;;
64996;Laerm;51545;51.568;6.998;2024-01-10T10:28:02;45.47;39.13;57.72;;
64996;Laerm;51545;51.568;6.998;2024-01-10T10:30:31;47.51;40.58;56.24;;
64996;Laerm;51545;51.568;6.998;2024-01-10T10:32:57;45.76;40.99;53.64;;
64996;Laerm;51545;51.568;6.998;2024-01-10T10:35:23;48.04;40.51;53.79;;
64996;Laerm;51545;51.568;6.998;2024-01-10T10:37:51;47.42;41.24;54.82;;
64996;Laerm;51545;51.568;6.998;2024-01-10T10:40:18;47.03;40.77;52.14;;
64996;Laerm;51545;51.568;6.998;2024-01-10T10:43:12;48.36;41.44;55.10;;
64996;Laerm;51545;51.568;6.998;2024-01-10T10:45:47;48.99;42.25;56.94;;
64996;Laerm;51545;51.568;6.998;2024-01-10T10:48:16;48.24;41.61;54.82;;
64996;Laerm;51545;51.568;6.998;2024-01-10T10:50:59;47.16;41.18;52.54;;
64996;Laerm;51545;51.568;6.998;2024-01-10T10:53:29;46.73;39.49;53.46;;
64996;Laerm;51545;51.568;6.998;2024-01-10T10:55:57;46.68;40.75;54.15;;
64996;Laerm;51545;51.568;6.998;2024-01-10T10:58:25;45.79;39.26;52.19;;
64996;Laerm;51545;51.568;6.998;2024-01-10T11:00:51;43.17;36.71;50.20;;
64996;Laerm;51545;51.568;6.998;2024-01-10T11:03:18;44.21;38.17;52.12;;
64996;Laerm;51545;51.568;6.998;2024-01-10T11:05:46;45.28;39.40;51.41;;
64996;Laerm;51545;51.568;6.998;2024-01-10T11:08:15;41.88;37.87;49.09;;
64996;Laerm;51545;51.568;6.998;2024-01-10T11:10:43;41.10;36.75;47.33;;
64996;Laerm;51545;51.568;6.998;2024-01-10T11:16:47;39.14;34.59;48.01;;
64996;Laerm;51545;51.568;6.998;2024-01-10T11:24:24;42.76;36.93;52.04;;
64996;Laerm;51545;51.568;6.998;2024-01-10T11:26:50;46.60;39.33;56.42;;
64996;Laerm;51545;51.568;6.998;2024-01-10T11:29:31;49.94;36.73;57.34;;
64996;Laerm;51545;51.568;6.998;2024-01-10T11:31:59;42.02;36.68;51.29;;
64996;Laerm;51545;51.568;6.998;2024-01-10T11:34:27;43.80;38.26;52.04;;
64996;Laerm;51545;51.568;6.998;2024-01-10T11:37:11;43.69;37.68;51.72;;
64996;Laerm;51545;51.568;6.998;2024-01-10T11:39:41;43.31;37.70;52.93;;
64996;Laerm;51545;51.568;6.998;2024-01-10T11:42:09;44.41;38.18;54.29;;
64996;Laerm;51545;51.568;6.998;2024-01-10T11:44:46;48.31;40.99;58.76;;
64996;Laerm;51545;51.568;6.998;2024-01-10T11:47:15;48.90;43.78;53.36;;
64996;Laerm;51545;51.568;6.998;2024-01-10T11:49:53;47.24;39.58;52.58;;
64996;Laerm;51545;51.568;6.998;2024-01-10T11:52:22;45.49;39.16;56.80;;
64996;Laerm;51545;51.568;6.998;2024-01-10T11:54:50;48.38;40.08;54.40;;
64996;Laerm;51545;51.568;6.998;2024-01-10T11:57:20;45.15;39.31;52.96;;
64996;Laerm;51545;51.568;6.998;2024-01-10T11:59:50;44.39;39.86;52.31;;
64996;Laerm;51545;51.568;6.998;2024-01-10T12:02:17;45.65;39.32;50.89;;
64996;Laerm;51545;51.568;6.998;2024-01-10T12:04:43;46.83;40.77;54.14;;
64996;Laerm;51545;51.568;6.998;2024-01-10T12:07:11;44.29;38.57;52.86;;
64996;Laerm;51545;51.568;6.998;2024-01-10T12:09:38;44.57;36.96;52.80;;
64996;Laerm;51545;51.568;6.998;2024-01-10T12:12:04;43.11;36.68;50.92;;
64996;Laerm;51545;51.568;6.998;2024-01-10T12:14:31;43.38;37.62;55.54;;
64996;Laerm;51545;51.568;6.998;2024-01-10T12:17:00;42.41;36.39;50.67;;
64996;Laerm;51545;51.568;6.998;2024-01-10T12:19:27;40.30;35.91;53.06;;
64996;Laerm;51545;51.568;6.998;2024-01-10T12:21:53;42.39;35.68;52.34;;
64996;Laerm;51545;51.568;6.998;2024-01-10T12:24:20;48.93;37.91;58.64;;
64996;Laerm;51545;51.568;6.998;2024-01-10T12:26:47;55.38;43.96;62.70;;
64996;Laerm;51545;51.568;6.998;2024-01-10T12:30:38;48.30;41.65;54.81;;
64996;Laerm;51545;51.568;6.998;2024-01-10T12:33:04;49.26;41.06;57.25;;
64996;Laerm;51545;51.568;6.998;2024-01-10T12:35:31;47.01;39.67;53.52;;
64996;Laerm;51545;51.568;6.998;2024-01-10T12:37:57;46.23;39.85;58.41;;
64996;Laerm;51545;51.568;6.998;2024-01-10T12:40:23;45.74;39.13;53.18;;
64996;Laerm;51545;51.568;6.998;2024-01-10T12:43:02;47.37;39.63;58.16;;
64996;Laerm;51545;51.568;6.998;2024-01-10T12:45:28;48.68;42.82;56.73;;
64996;Laerm;51545;51.568;6.998;2024-01-10T12:47:54;49.19;40.25;57.74;;
64996;Laerm;51545;51.568;6.998;2024-01-10T12:50:20;48.67;43.45;54.26;;
64996;Laerm;51545;51.568;6.998;2024-01-10T12:52:48;46.13;37.41;56.67;;
64996;Laerm;51545;51.568;6.998;2024-01-10T12:55:15;44.08;37.85;56.85;;
64996;Laerm;51545;51.568;6.998;2024-01-10T12:57:41;45.22;39.40;53.71;;
64996;Laerm;51545;51.568;6.998;2024-01-10T13:00:08;50.03;39.99;57.50;;
64996;Laerm;51545;51.568;6.998;2024-01-10T13:02:37;46.57;38.48;53.97;;
64996;Laerm;51545;51.568;6.998;2024-01-10T13:05:06;52.14;38.48;60.03;;
64996;Laerm;51545;51.568;6.998;2024-01-10T13:07:38;56.14;41.80;62.94;;
64996;Laerm;51545;51.568;6.998;2024-01-10T13:10:04;51.46;45.08;58.35;;
64996;Laerm;51545;51.568;6.998;2024-01-10T13:12:30;50.44;44.59;61.97;;
64996;Laerm;51545;51.568;6.998;2024-01-10T13:14:56;48.62;41.39;60.96;;
64996;Laerm;51545;51.568;6.998;2024-01-10T13:17:22;52.79;43.82;60.69;;
64996;Laerm;51545;51.568;6.998;2024-01-10T13:19:48;47.79;39.74;57.04;;
64996;Laerm;51545;51.568;6.998;2024-01-10T13:22:19;48.59;41.76;57.68;;
64996;Laerm;51545;51.568;6.998;2024-01-10T13:24:47;53.14;40.48;61.73;;
64996;Laerm;51545;51.568;6.998;2024-01-10T13:27:13;48.30;38.48;58.52;;
64996;Laerm;51545;51.568;6.998;2024-01-10T13:29:39;44.22;36.39;51.26;;
64996;Laerm;51545;51.568;6.998;2024-01-10T13:32:05;46.11;39.97;54.77;;
64996;Laerm;51545;51.568;6.998;2024-01-10T13:34:31;45.36;39.73;56.46;;
64996;Laerm;51545;51.568;6.998;2024-01-10T13:37:00;47.32;40.36;53.51;;
64996;Laerm;51545;51.568;6.998;2024-01-10T13:39:27;49.02;42.45;54.64;;
64996;Laerm;51545;51.568;6.998;2024-01-10T13:41:54;50.62;41.98;54.69;;
64996;Laerm;51545;51.568;6.998;2024-01-10T13:44:20;48.93;40.55;56.13;;
64996;Laerm;51545;51.568;6.998;2024-01-10T13:46:49;45.01;38.39;53.66;;
64996;Laerm;51545;51.568;6.998;2024-01-10T13:49:16;48.38;40.69;56.13;;
64996;Laerm;51545;51.568;6.998;2024-01-10T13:51:43;48.63;42.63;58.92;;
64996;Laerm;51545;51.568;6.998;2024-01-10T13:54:10;49.41;43.93;57.13;;
64996;Laerm;51545;51.568;6.998;2024-01-10T13:56:39;50.08;43.39;56.43;;
64996;Laerm;51545;51.568;6.998;2024-01-10T13:59:06;47.32;38.74;54.33;;